KRDM/RDM METAR and TAF weather

Enter ICAO airport designator
Station Type Date Time Source
KRDM METAR 2019/11/15 05:12 UTC NOAA

KRDM 150512Z AUTO 00000KT 9SM OVC004 04/02 A3007 RMK AO2 T00390022


Station Type Date Time Source
KRDM Decoded METAR 2019/11/15 05:12 UTC NOAA

REDMOND ROBERTS FIELD, OR, United States (KRDM) 44-15N 121-08W
Nov 15, 2019 - 12:12 AM EST / 2019.11.15 0512 UTC
Wind: Calm:0
Visibility: 9 mile(s):0
Sky conditions: overcast
Temperature: 39.0 F (3.9 C)
Dew Point: 36.0 F (2.2 C)
Relative Humidity: 88%
Pressure (altimeter): 30.07 in. Hg (1018 hPa)
ob: KRDM 150512Z AUTO 00000KT 9SM OVC004 04/02 A3007 RMK AO2 T00390022
cycle: 5

Station Type Date Time Source
KRDM TAF 2019/11/15 06:39 UTC NOAA

TAF KRDM 150536Z 1506/1606 VRB03KT P6SM OVC005
FM150900 VRB03KT P6SM OVC004
FM151600 21005KT P6SM SCT007 OVC050
FM152100 30010KT P6SM OVC050
FM160100 29005KT P6SM OVC020

Example: see airport list